createdAt,value
2023-03-16T00:00:25.703Z,32.90
2023-03-16T00:02:53.458Z,34.30
2023-03-16T00:05:21.616Z,34.90
2023-03-16T00:07:51.389Z,31.70
2023-03-16T00:10:18.634Z,27.90
2023-03-16T00:12:46.611Z,24.40
2023-03-16T00:15:15.297Z,24.40
2023-03-16T00:17:47.972Z,25.60
2023-03-16T00:20:16.549Z,25.40
2023-03-16T00:22:43.854Z,22.80
2023-03-16T00:25:12.288Z,26.00
2023-03-16T00:27:40.810Z,22.90
2023-03-16T00:30:09.256Z,22.80
2023-03-16T00:32:41.035Z,23.10
2023-03-16T00:35:14.308Z,21.80
2023-03-16T00:37:43.215Z,24.00
2023-03-16T00:40:14.403Z,30.20
2023-03-16T00:42:42.916Z,25.60
2023-03-16T00:45:17.341Z,28.50
2023-03-16T00:47:45.270Z,27.30
2023-03-16T00:50:14.196Z,28.50
2023-03-16T00:52:42.473Z,30.60
2023-03-16T00:55:09.827Z,31.30
2023-03-16T00:57:37.207Z,28.20
2023-03-16T01:00:15.809Z,29.10
2023-03-16T01:02:45.131Z,26.70
2023-03-16T01:05:13.826Z,26.10
2023-03-16T01:07:41.149Z,27.80
2023-03-16T01:10:09.635Z,31.60
2023-03-16T01:12:39.851Z,33.70
2023-03-16T01:15:07.761Z,27.10
2023-03-16T01:17:35.577Z,28.00
2023-03-16T01:20:04.683Z,24.60
2023-03-16T01:22:33.263Z,25.40
2023-03-16T01:25:03.614Z,25.90
2023-03-16T01:27:31.048Z,24.50
2023-03-16T01:29:58.511Z,27.00
2023-03-16T01:32:26.462Z,26.40
2023-03-16T01:34:56.903Z,25.10
2023-03-16T01:37:24.460Z,24.40
2023-03-16T01:39:59.208Z,30.00
2023-03-16T01:42:26.450Z,29.20
2023-03-16T01:45:02.916Z,28.80
2023-03-16T01:47:37.858Z,28.40
2023-03-16T01:50:07.144Z,36.20
2023-03-16T01:52:39.113Z,25.30
2023-03-16T01:55:13.230Z,31.00
2023-03-16T01:57:42.114Z,30.40
2023-03-16T02:00:19.224Z,32.10
2023-03-16T02:03:18.456Z,26.60
2023-03-16T02:06:04.599Z,28.20
2023-03-16T02:08:34.668Z,27.80
2023-03-16T02:11:01.867Z,25.30
2023-03-16T02:14:07.010Z,22.50
2023-03-16T02:16:35.913Z,25.10
2023-03-16T02:19:13.804Z,28.00
2023-03-16T02:22:02.273Z,27.10
2023-03-16T02:24:30.320Z,24.80
2023-03-16T02:26:59.245Z,25.60
2023-03-16T02:29:54.941Z,23.80
2023-03-16T02:32:24.609Z,24.40
2023-03-16T02:34:54.665Z,25.90
2023-03-16T02:37:23.048Z,26.60
2023-03-16T02:39:51.253Z,22.80
2023-03-16T02:42:25.855Z,24.10
2023-03-16T02:44:57.294Z,24.50
2023-03-16T02:47:42.738Z,24.00
2023-03-16T02:50:14.432Z,26.10
2023-03-16T02:52:42.088Z,26.30
2023-03-16T02:55:10.909Z,28.10
2023-03-16T02:57:39.025Z,26.30
2023-03-16T03:00:19.410Z,22.70
2023-03-16T03:05:22.123Z,23.40
2023-03-16T03:07:51.200Z,23.60
2023-03-16T03:10:19.484Z,27.90
2023-03-16T03:12:49.917Z,25.60
2023-03-16T03:15:28.122Z,33.40
2023-03-16T03:18:03.670Z,28.60
2023-03-16T03:20:31.000Z,27.20
2023-03-16T03:24:09.143Z,27.20
2023-03-16T03:26:38.658Z,26.80
2023-03-16T03:29:10.199Z,23.60
2023-03-16T03:31:38.630Z,25.00
2023-03-16T03:34:08.603Z,22.20
2023-03-16T03:36:37.076Z,24.60
2023-03-16T03:39:05.968Z,27.80
2023-03-16T03:41:37.125Z,18.30
2023-03-16T03:44:06.416Z,26.10
2023-03-16T03:46:36.064Z,24.60
2023-03-16T03:49:05.635Z,30.60
2023-03-16T03:51:36.363Z,22.50
2023-03-16T03:54:19.232Z,28.10
2023-03-16T03:56:53.502Z,24.20
2023-03-16T03:59:23.006Z,26.90
2023-03-16T04:02:20.084Z,27.80
2023-03-16T04:04:56.117Z,28.20
2023-03-16T04:07:26.542Z,25.30
2023-03-16T04:09:57.380Z,32.80
2023-03-16T04:12:31.290Z,27.70
2023-03-16T04:15:12.698Z,29.00
2023-03-16T04:18:03.185Z,28.20
2023-03-16T04:20:33.092Z,26.80
2023-03-16T04:23:01.776Z,28.50
2023-03-16T04:25:32.104Z,28.70
2023-03-16T04:28:03.039Z,28.50
2023-03-16T04:30:32.481Z,34.90
2023-03-16T04:33:12.287Z,25.50
2023-03-16T04:35:41.758Z,24.90
2023-03-16T04:38:13.348Z,24.10
2023-03-16T04:40:53.710Z,28.20
2023-03-16T04:43:36.509Z,27.00
2023-03-16T04:46:12.406Z,29.30
2023-03-16T04:48:40.999Z,23.20
2023-03-16T04:51:12.786Z,24.20
2023-03-16T04:53:49.945Z,29.40
2023-03-16T04:56:24.612Z,26.30
2023-03-16T04:59:01.819Z,27.20
2023-03-16T05:01:40.486Z,27.00
2023-03-16T05:04:18.951Z,27.40
2023-03-16T05:06:52.229Z,26.10
2023-03-16T05:09:23.688Z,25.40
2023-03-16T05:11:52.369Z,26.70
2023-03-16T05:14:29.245Z,23.30
2023-03-16T05:17:10.686Z,23.30
2023-03-16T05:19:40.462Z,26.90
2023-03-16T05:22:09.906Z,25.40
2023-03-16T05:24:44.383Z,24.10
2023-03-16T05:27:18.292Z,23.00
2023-03-16T05:29:50.427Z,23.90
2023-03-16T05:32:19.053Z,23.60
2023-03-16T05:34:48.251Z,25.00
2023-03-16T05:37:21.648Z,22.00
2023-03-16T05:39:50.672Z,21.40
2023-03-16T05:42:28.380Z,22.30
2023-03-16T05:45:02.913Z,26.90
2023-03-16T05:47:42.897Z,22.20
2023-03-16T05:50:13.553Z,20.50
2023-03-16T05:52:45.551Z,19.20
2023-03-16T05:55:20.269Z,16.70
2023-03-16T05:57:54.066Z,18.30
2023-03-16T06:00:42.293Z,20.80
2023-03-16T06:03:19.672Z,23.00
2023-03-16T06:05:50.757Z,22.00
2023-03-16T06:08:22.460Z,18.80
2023-03-16T06:10:57.880Z,18.90
2023-03-16T06:13:29.725Z,17.40
2023-03-16T06:15:58.888Z,21.70
2023-03-16T06:18:28.775Z,23.90
2023-03-16T06:23:37.746Z,24.10
2023-03-16T06:26:09.911Z,41.00
2023-03-16T06:28:39.354Z,45.70
2023-03-16T06:31:10.443Z,34.30
2023-03-16T06:33:41.922Z,25.20
2023-03-16T06:36:10.355Z,21.90
2023-03-16T06:38:43.531Z,23.30
2023-03-16T06:41:31.883Z,18.50
2023-03-16T06:44:02.947Z,23.60
2023-03-16T06:46:35.406Z,22.40
2023-03-16T06:49:07.875Z,24.50
2023-03-16T06:51:37.601Z,26.40
2023-03-16T06:54:07.363Z,23.50
2023-03-16T06:56:40.682Z,21.50
2023-03-16T06:59:09.228Z,23.80
2023-03-16T07:01:48.757Z,23.30
2023-03-16T07:04:18.403Z,24.30
2023-03-16T07:06:47.654Z,23.70
2023-03-16T07:09:16.499Z,23.40
2023-03-16T07:11:46.379Z,22.50
2023-03-16T07:14:24.479Z,23.10
2023-03-16T07:17:06.836Z,26.20
2023-03-16T07:19:37.781Z,27.00
2023-03-16T07:22:11.367Z,21.20
2023-03-16T07:24:40.365Z,23.00
2023-03-16T07:27:12.505Z,23.40
2023-03-16T07:29:42.703Z,23.90
2023-03-16T07:32:15.036Z,24.20
2023-03-16T07:34:47.048Z,22.50
2023-03-16T07:37:25.574Z,20.30
2023-03-16T07:39:55.254Z,21.00
2023-03-16T07:42:24.522Z,22.90
2023-03-16T07:45:10.006Z,24.10
2023-03-16T07:47:43.976Z,22.40
2023-03-16T07:50:22.700Z,21.40
2023-03-16T07:52:54.497Z,20.00
2023-03-16T07:55:24.164Z,23.60
2023-03-16T07:57:56.025Z,23.90
2023-03-16T08:00:30.300Z,53.20
2023-03-16T08:03:02.371Z,30.20
2023-03-16T08:05:32.945Z,26.50
2023-03-16T08:08:04.698Z,41.90
2023-03-16T08:10:34.716Z,22.90
2023-03-16T08:13:12.106Z,20.90
2023-03-16T08:15:58.763Z,20.80
2023-03-16T08:18:34.473Z,24.80
2023-03-16T08:21:04.286Z,21.60
2023-03-16T08:23:39.938Z,26.90
2023-03-16T08:26:10.372Z,16.60
2023-03-16T08:28:41.039Z,21.50
2023-03-16T08:31:13.236Z,23.30
2023-03-16T08:33:47.208Z,23.80
2023-03-16T08:36:17.302Z,19.50
2023-03-16T08:39:04.105Z,20.80
2023-03-16T08:41:37.095Z,16.90
2023-03-16T08:44:09.635Z,20.20
2023-03-16T08:46:38.275Z,20.50
2023-03-16T08:49:10.320Z,21.10
2023-03-16T08:51:40.439Z,21.00
2023-03-16T08:54:08.695Z,21.20
2023-03-16T08:56:37.182Z,20.50
2023-03-16T08:59:08.955Z,26.20
2023-03-16T09:01:39.191Z,20.90
2023-03-16T09:04:13.192Z,36.40
2023-03-16T09:06:42.527Z,41.70
2023-03-16T09:09:13.583Z,89.90
2023-03-16T09:11:42.441Z,24.40
2023-03-16T09:14:13.266Z,20.00
2023-03-16T09:16:43.043Z,18.10
2023-03-16T09:19:13.913Z,19.80
2023-03-16T09:21:42.498Z,19.60
2023-03-16T09:24:10.979Z,26.50
2023-03-16T09:26:41.363Z,18.90
2023-03-16T09:29:15.843Z,18.90
2023-03-16T09:31:47.543Z,19.60
2023-03-16T09:34:18.172Z,18.10
2023-03-16T09:36:46.506Z,18.70
2023-03-16T09:39:17.232Z,21.90
2023-03-16T09:42:04.782Z,47.30
2023-03-16T09:45:12.068Z,65.90
2023-03-16T09:47:41.657Z,47.80
2023-03-16T09:50:17.412Z,129.00
2023-03-16T09:52:59.671Z,152.10
2023-03-16T09:55:35.168Z,39.50
2023-03-16T09:58:08.889Z,23.50
2023-03-16T10:00:46.154Z,97.30
2023-03-16T10:03:30.023Z,74.50
2023-03-16T10:06:04.087Z,61.40
2023-03-16T10:08:56.121Z,27.00
2023-03-16T10:11:36.485Z,36.50
2023-03-16T10:14:20.108Z,55.40
2023-03-16T10:17:00.049Z,39.00
2023-03-16T10:19:44.738Z,32.30
2023-03-16T10:22:22.572Z,24.80
2023-03-16T10:25:06.612Z,21.40
2023-03-16T10:27:37.480Z,22.90
2023-03-16T10:30:30.228Z,18.10
2023-03-16T10:33:02.525Z,17.30
2023-03-16T10:35:46.579Z,15.70
2023-03-16T10:38:40.401Z,18.60
2023-03-16T10:41:39.588Z,18.50
2023-03-16T10:44:13.439Z,15.10
2023-03-16T10:47:05.831Z,14.80
2023-03-16T10:49:42.239Z,14.90
2023-03-16T10:52:33.723Z,19.00
2023-03-16T10:55:18.491Z,16.10
2023-03-16T10:57:52.597Z,17.50
2023-03-16T11:00:36.335Z,17.10
2023-03-16T11:03:31.442Z,17.40
2023-03-16T11:06:12.165Z,18.90
2023-03-16T11:08:43.239Z,18.00
2023-03-16T11:11:33.651Z,20.10
2023-03-16T11:14:04.825Z,18.00
2023-03-16T11:17:14.646Z,18.00
2023-03-16T11:19:56.664Z,15.80
2023-03-16T11:22:28.373Z,16.70
2023-03-16T11:25:02.405Z,16.00
2023-03-16T11:27:58.101Z,23.20
2023-03-16T11:30:30.397Z,18.10
2023-03-16T11:33:02.038Z,17.40
2023-03-16T11:35:41.939Z,19.60
2023-03-16T11:38:35.301Z,21.90
2023-03-16T11:41:15.707Z,21.10
2023-03-16T11:46:44.370Z,22.50
2023-03-16T11:49:33.889Z,24.00
2023-03-16T11:52:18.242Z,20.70
2023-03-16T11:55:03.265Z,19.40
2023-03-16T11:57:51.751Z,25.50
2023-03-16T12:01:00.277Z,22.80
2023-03-16T12:03:43.213Z,20.60
2023-03-16T12:06:31.035Z,24.90
2023-03-16T12:09:26.645Z,20.80
2023-03-16T12:12:23.316Z,22.40
2023-03-16T12:15:06.219Z,23.50
2023-03-16T12:17:35.405Z,22.40
2023-03-16T12:20:37.239Z,18.00
2023-03-16T12:23:15.240Z,20.60
2023-03-16T12:25:47.144Z,25.60
2023-03-16T12:28:27.166Z,20.90
2023-03-16T12:30:59.455Z,22.00
2023-03-16T12:33:53.846Z,20.20
2023-03-16T12:36:53.059Z,22.50
2023-03-16T12:39:48.147Z,22.20
2023-03-16T12:42:26.488Z,23.70
2023-03-16T12:45:01.363Z,23.90
2023-03-16T12:47:46.528Z,22.50
2023-03-16T12:50:17.785Z,19.30
2023-03-16T12:52:50.212Z,19.70
2023-03-16T12:55:28.226Z,19.00
2023-03-16T12:58:02.284Z,17.70
2023-03-16T13:00:36.276Z,18.70
2023-03-16T13:03:05.985Z,20.20
2023-03-16T13:05:36.858Z,18.70
2023-03-16T13:08:07.018Z,19.60
2023-03-16T13:10:39.830Z,25.70
2023-03-16T13:13:17.281Z,19.50
2023-03-16T13:15:47.771Z,18.20
2023-03-16T13:18:23.423Z,21.20
2023-03-16T13:20:57.202Z,15.10
2023-03-16T13:23:29.026Z,17.10
2023-03-16T13:26:43.920Z,14.60
2023-03-16T13:29:27.257Z,16.00
2023-03-16T13:32:08.329Z,17.60
2023-03-16T13:34:39.819Z,18.20
2023-03-16T13:39:43.426Z,15.70
2023-03-16T13:42:18.312Z,17.00
2023-03-16T13:44:53.746Z,18.10
2023-03-16T13:47:22.633Z,15.30
2023-03-16T13:49:55.988Z,18.10
2023-03-16T13:52:27.881Z,12.60
2023-03-16T13:55:02.623Z,16.80
2023-03-16T13:57:36.492Z,14.20
2023-03-16T14:00:28.114Z,15.30
2023-03-16T14:02:59.411Z,12.20
2023-03-16T14:05:42.861Z,13.90
2023-03-16T14:08:30.393Z,16.60
2023-03-16T14:11:01.252Z,14.90
2023-03-16T14:13:36.785Z,12.20
2023-03-16T14:16:17.221Z,13.70
2023-03-16T14:18:54.983Z,13.30
2023-03-16T14:21:29.765Z,14.10
2023-03-16T14:24:04.585Z,11.30
2023-03-16T14:26:43.253Z,11.40
2023-03-16T14:29:25.109Z,14.30
2023-03-16T14:31:53.917Z,13.30
2023-03-16T14:34:36.808Z,15.70
2023-03-16T14:37:16.161Z,11.40
2023-03-16T14:39:46.166Z,13.40
2023-03-16T14:42:20.010Z,14.00
2023-03-16T14:44:50.966Z,13.40
2023-03-16T14:47:24.570Z,14.90
2023-03-16T14:50:03.238Z,10.40
2023-03-16T14:52:34.056Z,12.30
2023-03-16T14:55:15.149Z,13.10
2023-03-16T14:57:45.219Z,13.20
2023-03-16T15:00:16.239Z,13.00
2023-03-16T15:02:46.657Z,11.30
2023-03-16T15:05:24.088Z,8.30
2023-03-16T15:07:54.809Z,9.10
2023-03-16T15:10:32.888Z,11.60
2023-03-16T15:13:16.412Z,11.20
2023-03-16T15:15:47.386Z,14.70
2023-03-16T15:18:17.484Z,15.40
2023-03-16T15:20:49.960Z,10.00
2023-03-16T15:23:18.527Z,11.20
2023-03-16T15:25:48.792Z,11.40
2023-03-16T15:28:24.352Z,10.20
2023-03-16T15:30:58.976Z,10.10
2023-03-16T15:33:27.782Z,10.40
2023-03-16T15:35:58.134Z,10.80
2023-03-16T15:38:34.987Z,13.60
2023-03-16T15:42:55.019Z,12.00
2023-03-16T15:45:24.111Z,15.00
2023-03-16T15:47:53.625Z,12.50
2023-03-16T15:50:24.666Z,10.70
2023-03-16T15:53:07.224Z,10.30
2023-03-16T15:55:41.165Z,9.70
2023-03-16T15:58:17.676Z,11.00
2023-03-16T16:00:47.264Z,13.30
2023-03-16T16:03:21.130Z,12.40
2023-03-16T16:05:51.784Z,10.80
2023-03-16T16:08:20.830Z,11.40
2023-03-16T16:10:51.204Z,11.60
2023-03-16T16:13:26.719Z,9.60
2023-03-16T16:15:58.722Z,11.80
2023-03-16T16:18:35.199Z,12.50
2023-03-16T16:21:28.037Z,11.50
2023-03-16T16:23:57.744Z,11.00
2023-03-16T16:26:37.677Z,14.20
2023-03-16T16:29:17.657Z,13.50
2023-03-16T16:31:46.284Z,14.60
2023-03-16T16:34:24.967Z,12.90
2023-03-16T16:36:56.764Z,8.30
2023-03-16T16:39:25.962Z,11.20
2023-03-16T16:41:55.528Z,16.10
2023-03-16T16:44:27.480Z,12.10
2023-03-16T16:46:59.946Z,11.40
2023-03-16T16:49:30.871Z,10.00
2023-03-16T16:51:59.726Z,11.30
2023-03-16T16:54:30.358Z,10.80
2023-03-16T16:57:01.897Z,5.90
2023-03-16T16:59:35.362Z,8.80
2023-03-16T17:02:18.647Z,8.40
2023-03-16T17:04:51.063Z,8.60
2023-03-16T17:07:19.503Z,9.70
2023-03-16T17:09:48.804Z,10.30
2023-03-16T17:12:21.449Z,16.10
2023-03-16T17:14:50.899Z,12.90
2023-03-16T17:17:22.635Z,23.20
2023-03-16T17:19:52.762Z,12.90
2023-03-16T17:22:25.985Z,13.70
2023-03-16T17:24:55.960Z,17.00
2023-03-16T17:27:29.382Z,13.00
2023-03-16T17:29:58.025Z,12.30
2023-03-16T17:32:26.859Z,7.70
2023-03-16T17:34:56.644Z,9.40
2023-03-16T17:37:26.152Z,11.90
2023-03-16T17:39:57.392Z,10.50
2023-03-16T17:42:29.905Z,9.40
2023-03-16T17:44:58.665Z,9.00
2023-03-16T17:47:27.783Z,7.90
2023-03-16T17:49:58.302Z,8.00
2023-03-16T17:52:29.014Z,9.40
2023-03-16T17:55:00.990Z,9.10
2023-03-16T17:57:31.335Z,10.50
2023-03-16T18:00:01.198Z,9.50
2023-03-16T18:02:50.072Z,7.40
2023-03-16T18:05:19.778Z,6.40
2023-03-16T18:07:50.154Z,6.80
2023-03-16T18:10:28.614Z,6.10
2023-03-16T18:13:05.746Z,5.60
2023-03-16T18:15:36.726Z,6.10
2023-03-16T18:18:08.458Z,4.50
2023-03-16T18:20:38.466Z,4.90
2023-03-16T18:23:27.578Z,5.50
2023-03-16T18:25:57.359Z,6.50
2023-03-16T18:28:28.280Z,5.60
2023-03-16T18:30:57.729Z,4.80
2023-03-16T18:33:29.388Z,6.50
2023-03-16T18:36:01.356Z,6.60
2023-03-16T18:38:35.503Z,8.80
2023-03-16T18:41:36.321Z,7.00
2023-03-16T18:44:18.741Z,6.80
2023-03-16T18:46:50.839Z,6.50
2023-03-16T18:49:22.979Z,6.80
2023-03-16T18:51:54.810Z,7.00
2023-03-16T18:54:27.409Z,6.30
2023-03-16T18:56:58.910Z,6.00
2023-03-16T18:59:27.700Z,7.20
2023-03-16T19:01:56.004Z,6.80
2023-03-16T19:04:28.143Z,7.00
2023-03-16T19:06:57.109Z,6.20
2023-03-16T19:09:32.266Z,7.10
2023-03-16T19:12:03.802Z,6.00
2023-03-16T19:14:36.991Z,7.50
2023-03-16T19:17:09.188Z,5.50
2023-03-16T19:19:41.228Z,8.20
2023-03-16T19:22:16.353Z,8.10
2023-03-16T19:24:47.156Z,6.40
2023-03-16T19:27:27.027Z,7.10
2023-03-16T19:30:00.402Z,6.50
2023-03-16T19:32:30.027Z,5.70
2023-03-16T19:35:00.541Z,6.30
2023-03-16T19:37:30.770Z,6.40
2023-03-16T19:40:01.094Z,6.10
2023-03-16T19:42:33.870Z,5.70
2023-03-16T19:45:03.685Z,6.40
2023-03-16T19:47:38.823Z,5.10
2023-03-16T19:50:17.967Z,6.90
2023-03-16T19:52:47.973Z,5.70
2023-03-16T19:55:25.776Z,6.60
2023-03-16T19:58:01.674Z,5.20
2023-03-16T20:00:31.664Z,5.00
2023-03-16T20:03:00.848Z,3.60
2023-03-16T20:05:30.444Z,5.00
2023-03-16T20:08:02.336Z,5.40
2023-03-16T20:10:32.972Z,4.90
2023-03-16T20:13:02.360Z,5.40
2023-03-16T20:15:35.849Z,4.00
2023-03-16T20:18:06.478Z,4.60
2023-03-16T20:20:44.392Z,5.00
2023-03-16T20:26:02.733Z,5.20
2023-03-16T20:28:36.507Z,3.80
2023-03-16T20:31:14.380Z,3.40
2023-03-16T20:33:44.165Z,4.10
2023-03-16T20:36:14.280Z,3.30
2023-03-16T20:38:47.275Z,4.50
2023-03-16T20:41:21.523Z,3.20
2023-03-16T20:43:50.275Z,2.70
2023-03-16T20:46:23.031Z,3.30
2023-03-16T20:48:52.155Z,3.70
2023-03-16T20:53:54.351Z,2.50
2023-03-16T20:56:25.449Z,4.40
2023-03-16T20:58:56.363Z,3.70
2023-03-16T21:01:30.590Z,3.20
2023-03-16T21:04:05.688Z,3.20
2023-03-16T21:06:36.203Z,6.00
2023-03-16T21:09:07.474Z,4.90
2023-03-16T21:11:39.825Z,2.90
2023-03-16T21:14:15.729Z,3.10
2023-03-16T21:16:44.986Z,4.40
2023-03-16T21:19:25.162Z,2.00
2023-03-16T21:21:54.038Z,1.80
2023-03-16T21:24:22.821Z,2.80
2023-03-16T21:26:52.637Z,2.40
2023-03-16T21:29:24.321Z,2.60
2023-03-16T21:31:54.609Z,1.90
2023-03-16T21:34:26.779Z,3.70
2023-03-16T21:36:58.339Z,2.60
2023-03-16T21:39:30.180Z,2.10
2023-03-16T21:41:58.456Z,3.60
2023-03-16T21:44:28.887Z,3.20
2023-03-16T21:46:59.735Z,3.90
2023-03-16T21:49:33.322Z,4.20
2023-03-16T21:52:04.909Z,4.80
2023-03-16T21:54:33.978Z,3.20
2023-03-16T21:57:05.525Z,4.80
2023-03-16T21:59:34.619Z,4.20
2023-03-16T22:02:22.962Z,5.60
2023-03-16T22:04:53.517Z,3.80
2023-03-16T22:07:27.003Z,3.90
2023-03-16T22:09:56.655Z,3.90
2023-03-16T22:12:26.773Z,3.40
2023-03-16T22:15:00.373Z,3.50
2023-03-16T22:17:29.164Z,4.30
2023-03-16T22:19:59.485Z,4.00
2023-03-16T22:22:32.885Z,3.90
2023-03-16T22:25:02.931Z,3.10
2023-03-16T22:27:31.335Z,2.70
2023-03-16T22:30:01.565Z,2.40
2023-03-16T22:32:32.922Z,1.60
2023-03-16T22:35:03.739Z,2.70
2023-03-16T22:37:32.278Z,2.50
2023-03-16T22:40:01.701Z,2.40
2023-03-16T22:42:34.030Z,4.20
2023-03-16T22:45:18.720Z,2.20
2023-03-16T22:47:51.509Z,3.20
2023-03-16T22:52:54.229Z,2.60
2023-03-16T22:55:32.319Z,2.50
2023-03-16T22:58:15.808Z,2.70
2023-03-16T23:00:47.011Z,2.10
2023-03-16T23:03:21.547Z,1.70
2023-03-16T23:05:57.349Z,1.90
2023-03-16T23:08:30.954Z,3.70
2023-03-16T23:11:00.760Z,1.80
2023-03-16T23:16:05.772Z,4.40
2023-03-16T23:18:37.730Z,1.70
2023-03-16T23:21:06.108Z,2.50
2023-03-16T23:23:36.322Z,1.40
2023-03-16T23:26:26.577Z,2.10
2023-03-16T23:28:56.521Z,1.80
2023-03-16T23:31:29.351Z,2.60
2023-03-16T23:33:59.265Z,5.10
2023-03-16T23:36:30.720Z,2.60
2023-03-16T23:39:01.563Z,1.20
2023-03-16T23:41:31.682Z,0.90
2023-03-16T23:44:08.782Z,2.40
2023-03-16T23:46:38.476Z,1.50
2023-03-16T23:49:07.012Z,1.90
2023-03-16T23:51:38.850Z,1.70
2023-03-16T23:54:31.985Z,3.60
2023-03-16T23:57:05.241Z,1.80
2023-03-16T23:59:35.117Z,2.10
